Time;durP1;ratioP1;P1;durP2;ratioP2;P2;SDS_P1;SDS_P2;PMS_P1;PMS_P2;Temp;Humidity;BMP_temperature;BMP_pressure;BME280_temperature;BME280_humidity;BME280_pressure;Samples;Min_cycle;Max_cycle;Signal;HPM_P1;HPM_P2
2023/08/25 00:01:10;;;;;;;5.13;3.20;;;22.80;72.50;;;;;;5228280;28;20565;-45
2023/08/25 00:03:41;;;;;;;7.63;4.53;;;22.70;72.50;;;;;;5245404;28;20186;-45
2023/08/25 00:06:12;;;;;;;4.03;3.77;;;22.70;73.40;;;;;;5245448;28;20468;-45
2023/08/25 00:08:43;;;;;;;3.93;3.60;;;22.70;73.80;;;;;;5250940;28;20181;-45
2023/08/25 00:11:14;;;;;;;3.83;3.50;;;22.70;73.90;;;;;;5253075;28;20221;-45
2023/08/25 00:13:44;;;;;;;3.97;3.60;;;22.60;73.60;;;;;;5249031;28;20523;-46
2023/08/25 00:16:15;;;;;;;15.20;3.70;;;22.60;73.40;;;;;;5249196;28;20600;-46
2023/08/25 00:18:46;;;;;;;5.23;3.43;;;22.60;73.50;;;;;;5230451;28;21199;-45
2023/08/25 00:21:17;;;;;;;4.43;3.60;;;22.60;72.90;;;;;;5245519;28;21142;-45
2023/08/25 00:23:47;;;;;;;3.20;2.93;;;22.60;73.00;;;;;;5251267;28;20265;-46
2023/08/25 00:26:18;;;;;;;3.83;3.47;;;22.70;72.80;;;;;;5245904;28;22304;-47
2023/08/25 00:28:49;;;;;;;5.50;3.30;;;22.70;73.00;;;;;;5246327;28;20311;-45
2023/08/25 00:31:20;;;;;;;3.93;3.30;;;22.70;73.10;;;;;;5252007;28;20978;-45
2023/08/25 00:33:50;;;;;;;6.90;4.03;;;22.70;73.20;;;;;;5242345;28;20189;-46
2023/08/25 00:36:21;;;;;;;5.23;3.93;;;22.60;72.90;;;;;;5242309;28;20185;-45
2023/08/25 00:38:52;;;;;;;3.37;3.17;;;22.70;72.90;;;;;;5246300;28;20218;-46
2023/08/25 00:41:23;;;;;;;3.50;3.23;;;22.70;73.30;;;;;;5229647;28;20819;-44
2023/08/25 00:43:54;;;;;;;3.70;3.43;;;22.70;73.60;;;;;;5244739;28;20280;-44
2023/08/25 00:46:24;;;;;;;5.20;3.03;;;22.70;73.50;;;;;;5246618;28;20194;-46
2023/08/25 00:48:56;;;;;;;2.90;2.70;;;22.60;73.60;;;;;;5243962;28;20190;-45
2023/08/25 00:51:27;;;;;;;4.30;3.27;;;22.60;74.00;;;;;;5251051;28;20255;-45
2023/08/25 00:53:58;;;;;;;3.33;3.13;;;22.60;74.40;;;;;;5257587;28;20535;-45
2023/08/25 00:56:29;;;;;;;4.87;3.40;;;22.60;74.70;;;;;;5242103;28;20185;-46
2023/08/25 00:59:01;;;;;;;4.27;3.40;;;22.50;75.00;;;;;;5247249;28;20216;-45
2023/08/25 01:01:32;;;;;;;3.60;3.40;;;22.50;75.30;;;;;;5246464;28;20456;-44
2023/08/25 01:04:03;;;;;;;3.10;2.90;;;22.50;75.80;;;;;;5243406;28;20513;-44
2023/08/25 01:06:34;;;;;;;4.70;3.33;;;22.50;75.90;;;;;;5247457;28;20191;-44
2023/08/25 01:09:06;;;;;;;3.23;2.90;;;22.50;76.20;;;;;;5249121;28;20445;-47
2023/08/25 01:11:41;;;;;;;4.20;3.77;;;22.50;76.50;;;;;;5246281;28;20233;-45
2023/08/25 01:14:26;;;;;;;3.77;3.47;;;22.40;76.90;;;;;;5249285;28;20473;-44
2023/08/25 01:16:57;;;;;;;5.67;3.87;;;22.40;77.40;;;;;;5246073;28;20444;-46
2023/08/25 01:19:50;;;;;;;3.80;3.60;;;22.40;78.00;;;;;;5255285;28;20459;-44
2023/08/25 01:23:02;;;;;;;4.53;3.40;;;22.30;78.80;;;;;;5247852;28;20206;-45
2023/08/25 01:25:33;;;;;;;8.63;4.60;;;22.30;79.30;;;;;;5247815;28;20540;-45
2023/08/25 01:28:04;;;;;;;4.57;4.23;;;22.20;80.20;;;;;;5247191;28;20434;-46
2023/08/25 01:30:36;;;;;;;4.13;3.83;;;22.20;80.90;;;;;;5243173;28;20182;-44
2023/08/25 01:33:07;;;;;;;5.87;3.93;;;22.20;81.70;;;;;;5251195;28;20424;-46
2023/08/25 01:35:56;;;;;;;5.00;4.17;;;22.10;82.30;;;;;;5233018;28;20993;-45
2023/08/25 01:38:39;;;;;;;5.30;4.03;;;22.10;83.00;;;;;;5248263;28;20217;-46
2023/08/25 01:41:22;;;;;;;4.00;3.70;;;22.10;83.90;;;;;;5246636;28;20518;-45
2023/08/25 01:43:54;;;;;;;6.10;4.20;;;22.10;84.70;;;;;;5245023;28;20511;-46
2023/08/25 01:46:25;;;;;;;3.73;3.57;;;22.10;85.40;;;;;;5248857;28;20486;-43
2023/08/25 01:48:57;;;;;;;4.03;3.73;;;22.10;86.10;;;;;;5254522;28;20448;-44
2023/08/25 01:51:29;;;;;;;7.80;4.70;;;22.10;87.00;;;;;;5245973;28;21051;-45
2023/08/25 01:53:59;;;;;;;4.13;3.90;;;22.10;87.70;;;;;;5250559;28;20567;-46
2023/08/25 01:56:30;;;;;;;4.30;4.00;;;22.10;88.30;;;;;;5247867;28;20431;-45
2023/08/25 01:59:01;;;;;;;9.60;5.00;;;22.10;89.20;;;;;;5252515;28;20198;-45
2023/08/25 02:01:31;;;;;;;3.53;3.33;;;22.10;90.00;;;;;;5256615;28;20206;-45
2023/08/25 02:04:02;;;;;;;4.10;3.63;;;22.20;90.30;;;;;;5254966;28;20178;-45
2023/08/25 02:06:33;;;;;;;5.03;4.37;;;22.20;90.70;;;;;;5251116;28;20270;-44
2023/08/25 02:09:04;;;;;;;5.10;4.60;;;22.10;91.20;;;;;;5247802;28;20189;-44
2023/08/25 02:11:35;;;;;;;3.90;3.70;;;22.10;91.60;;;;;;5248875;28;20251;-45
2023/08/25 02:14:06;;;;;;;4.20;3.80;;;22.10;92.10;;;;;;5255624;28;20433;-45
2023/08/25 02:16:36;;;;;;;4.47;4.17;;;22.10;92.50;;;;;;5247997;28;20182;-45
2023/08/25 02:19:07;;;;;;;3.90;3.60;;;22.10;93.00;;;;;;5249987;28;21491;-46
2023/08/25 02:21:37;;;;;;;4.43;4.13;;;22.10;93.20;;;;;;5249539;28;21240;-44
2023/08/25 02:24:09;;;;;;;4.70;4.30;;;22.10;93.60;;;;;;5254455;28;20675;-45
2023/08/25 02:26:40;;;;;;;10.67;4.90;;;22.00;94.20;;;;;;5251477;28;20182;-45
2023/08/25 02:29:11;;;;;;;5.33;4.50;;;22.10;94.60;;;;;;5254971;28;20555;-44
2023/08/25 02:31:41;;;;;;;12.03;4.23;;;22.00;94.90;;;;;;5246630;28;20229;-45
2023/08/25 02:34:12;;;;;;;5.50;5.00;;;22.00;95.40;;;;;;5247204;28;20288;-45
2023/08/25 02:36:43;;;;;;;7.50;4.40;;;22.00;95.80;;;;;;5246692;28;20182;-45
2023/08/25 02:39:14;;;;;;;3.93;3.47;;;22.00;96.20;;;;;;5245961;28;20523;-44
2023/08/25 02:41:45;;;;;;;4.83;4.03;;;22.00;96.50;;;;;;5251047;28;20716;-44
2023/08/25 02:44:15;;;;;;;4.27;3.87;;;22.00;96.70;;;;;;5251234;28;20436;-45
2023/08/25 02:46:46;;;;;;;4.10;3.90;;;22.10;97.00;;;;;;5251507;28;20170;-45
2023/08/25 02:49:17;;;;;;;4.60;4.30;;;22.10;97.30;;;;;;5244391;28;20178;-44
2023/08/25 02:51:47;;;;;;;3.23;3.03;;;22.10;97.50;;;;;;5245081;28;20279;-45
2023/08/25 02:54:18;;;;;;;4.67;4.27;;;22.10;97.70;;;;;;5248572;28;20255;-45
2023/08/25 02:56:49;;;;;;;9.10;4.57;;;22.10;97.90;;;;;;5248503;28;20186;-47
2023/08/25 02:59:20;;;;;;;5.43;4.47;;;22.10;98.30;;;;;;5252117;28;20210;-45
2023/08/25 03:01:50;;;;;;;4.37;4.00;;;22.00;98.60;;;;;;5247827;28;20226;-44
2023/08/25 03:04:22;;;;;;;16.20;5.20;;;22.00;99.10;;;;;;5246727;28;20220;-45
2023/08/25 03:06:54;;;;;;;6.73;5.00;;;22.00;99.40;;;;;;5246458;28;20210;-44
2023/08/25 03:09:25;;;;;;;4.43;4.03;;;21.90;99.70;;;;;;5251148;28;20505;-45
2023/08/25 03:11:56;;;;;;;4.67;4.20;;;21.90;99.90;;;;;;5246421;28;20460;-44
2023/08/25 03:14:28;;;;;;;5.60;3.47;;;21.90;99.90;;;;;;5242400;28;20974;-45
2023/08/25 03:16:58;;;;;;;4.33;3.80;;;21.90;99.90;;;;;;5246780;28;20205;-45
2023/08/25 03:19:29;;;;;;;5.73;4.53;;;21.90;99.90;;;;;;5244181;28;20964;-45
2023/08/25 03:21:59;;;;;;;4.13;3.93;;;21.90;99.90;;;;;;5247268;28;20205;-45
2023/08/25 03:24:30;;;;;;;13.00;5.30;;;21.90;99.90;;;;;;5263219;28;20173;-45
2023/08/25 03:27:01;;;;;;;5.90;4.10;;;21.90;99.90;;;;;;5245348;28;20669;-45
2023/08/25 03:29:31;;;;;;;7.93;4.70;;;21.90;99.90;;;;;;5245081;28;20181;-46
2023/08/25 03:32:02;;;;;;;6.03;4.47;;;21.90;99.90;;;;;;5242959;28;20234;-46
2023/08/25 03:34:33;;;;;;;5.70;5.20;;;22.00;99.90;;;;;;5247701;28;20194;-45
2023/08/25 03:37:05;;;;;;;4.60;4.30;;;21.90;99.90;;;;;;5243391;28;21030;-45
2023/08/25 03:39:37;;;;;;;4.33;4.03;;;21.80;99.90;;;;;;5245346;28;20206;-44
2023/08/25 03:42:07;;;;;;;4.53;4.13;;;21.80;99.90;;;;;;5242821;28;20500;-45
2023/08/25 03:44:38;;;;;;;6.27;5.10;;;21.90;99.90;;;;;;5244560;28;20435;-45
2023/08/25 03:47:09;;;;;;;7.90;4.97;;;21.90;99.90;;;;;;5244701;28;20177;-45
2023/08/25 03:49:40;;;;;;;4.80;4.43;;;21.90;99.90;;;;;;5246261;28;20186;-46
2023/08/25 03:52:10;;;;;;;5.33;4.93;;;21.90;99.90;;;;;;5249306;28;20251;-44
2023/08/25 03:54:41;;;;;;;5.00;4.50;;;21.90;99.90;;;;;;5250443;28;20202;-45
2023/08/25 03:57:12;;;;;;;6.93;5.30;;;22.00;99.90;;;;;;5240779;28;20182;-45
2023/08/25 03:59:42;;;;;;;5.03;4.53;;;21.90;99.90;;;;;;5249932;28;20337;-45
2023/08/25 04:02:13;;;;;;;5.60;5.10;;;21.90;99.90;;;;;;5255428;28;20296;-44
2023/08/25 04:04:44;;;;;;;5.30;4.53;;;21.90;99.90;;;;;;5249808;28;20186;-45
2023/08/25 04:07:15;;;;;;;4.07;3.80;;;21.90;99.90;;;;;;5255695;28;20186;-44
2023/08/25 04:09:45;;;;;;;4.80;4.40;;;21.90;99.90;;;;;;5253260;28;20183;-45
2023/08/25 04:12:16;;;;;;;4.67;4.27;;;21.90;99.90;;;;;;5240663;28;20206;-44
2023/08/25 04:14:47;;;;;;;12.60;4.73;;;21.90;99.90;;;;;;5245578;28;20206;-46
2023/08/25 04:17:17;;;;;;;6.60;5.20;;;21.90;99.90;;;;;;5252563;28;20294;-45
2023/08/25 04:19:49;;;;;;;9.87;5.53;;;21.90;99.90;;;;;;5250579;28;20209;-45
2023/08/25 04:22:19;;;;;;;6.30;5.70;;;21.80;99.90;;;;;;5252447;28;20595;-45
2023/08/25 04:24:50;;;;;;;4.83;4.27;;;21.80;99.90;;;;;;5253963;28;20454;-44
2023/08/25 04:27:21;;;;;;;7.23;5.20;;;21.70;99.90;;;;;;5249985;28;20201;-44
2023/08/25 04:29:52;;;;;;;4.70;4.40;;;21.70;99.90;;;;;;5251981;28;20186;-44
2023/08/25 04:32:22;;;;;;;12.53;5.60;;;21.70;99.90;;;;;;5253810;28;20224;-45
2023/08/25 04:34:53;;;;;;;4.23;3.93;;;21.70;99.90;;;;;;5247535;28;20201;-45
2023/08/25 04:37:24;;;;;;;5.90;4.23;;;21.70;99.90;;;;;;5249208;28;20174;-45
2023/08/25 04:39:55;;;;;;;9.70;6.10;;;21.80;99.90;;;;;;5254495;28;20209;-45
2023/08/25 04:42:26;;;;;;;9.17;5.10;;;21.90;99.90;;;;;;5245367;28;20228;-46
2023/08/25 04:44:57;;;;;;;8.10;4.67;;;22.10;99.90;;;;;;5248417;28;20448;-47
2023/08/25 04:47:27;;;;;;;7.27;5.63;;;22.20;99.90;;;;;;5247553;28;20432;-45
2023/08/25 04:50:02;;;;;;;6.43;4.77;;;22.40;99.90;;;;;;5247807;28;20174;-45
2023/08/25 04:52:36;;;;;;;5.90;3.50;;;22.60;99.90;;;;;;5256564;28;20209;-45
2023/08/25 04:55:07;;;;;;;6.50;5.27;;;22.70;99.90;;;;;;5263248;28;20439;-45
2023/08/25 04:57:39;;;;;;;13.10;5.53;;;22.80;99.90;;;;;;5257520;28;20557;-44
2023/08/25 05:00:10;;;;;;;5.20;4.20;;;23.00;99.90;;;;;;5265730;28;20678;-44
2023/08/25 05:02:41;;;;;;;4.57;4.27;;;23.00;99.90;;;;;;5268849;28;20446;-45
2023/08/25 05:05:11;;;;;;;6.20;5.10;;;23.00;99.90;;;;;;5266051;28;20424;-45
2023/08/25 05:07:42;;;;;;;5.80;4.20;;;23.00;99.90;;;;;;5260248;28;20200;-46
2023/08/25 05:10:13;;;;;;;8.80;5.00;;;23.10;99.90;;;;;;5265054;28;20181;-45
2023/08/25 05:12:44;;;;;;;12.83;5.90;;;23.20;99.90;;;;;;5270870;28;20206;-44
2023/08/25 05:15:16;;;;;;;8.53;5.13;;;23.40;99.90;;;;;;5264369;28;20642;-46
2023/08/25 05:17:46;;;;;;;20.40;5.70;;;23.40;99.90;;;;;;5256451;28;20186;-45
2023/08/25 05:20:21;;;;;;;5.80;5.20;;;23.50;99.90;;;;;;5267090;28;20481;-45
2023/08/25 05:22:51;;;;;;;5.20;4.90;;;23.50;99.90;;;;;;5261084;28;20212;-44
2023/08/25 05:25:23;;;;;;;5.93;4.80;;;23.50;99.90;;;;;;5268231;28;20530;-44
2023/08/25 05:27:53;;;;;;;6.43;4.60;;;23.50;99.90;;;;;;5258845;28;20202;-44
2023/08/25 05:30:24;;;;;;;5.23;4.67;;;23.60;99.90;;;;;;5261980;28;20940;-45
2023/08/25 05:32:55;;;;;;;4.77;4.40;;;24.10;99.90;;;;;;5270476;28;20296;-45
2023/08/25 05:35:25;;;;;;;4.40;4.23;;;25.60;99.40;;;;;;5261618;28;20200;-45
2023/08/25 05:37:56;;;;;;;8.77;4.17;;;28.00;93.60;;;;;;5271352;28;20225;-45
2023/08/25 05:40:27;;;;;;;6.90;4.50;;;30.00;84.80;;;;;;5268603;28;20193;-45
2023/08/25 05:42:57;;;;;;;4.00;3.63;;;31.90;69.90;;;;;;5267628;28;20202;-45
2023/08/25 05:45:28;;;;;;;5.50;4.50;;;33.00;61.90;;;;;;5266379;28;20181;-45
2023/08/25 05:47:59;;;;;;;3.87;3.57;;;32.20;59.30;;;;;;5269318;28;20261;-45
2023/08/25 05:50:29;;;;;;;5.47;4.37;;;30.80;60.40;;;;;;5267486;28;20200;-45
2023/08/25 05:53:00;;;;;;;4.07;3.77;;;29.40;63.70;;;;;;5271889;28;20292;-45
2023/08/25 05:55:31;;;;;;;7.93;4.43;;;28.00;67.20;;;;;;5263145;28;20216;-44
2023/08/25 05:58:02;;;;;;;5.00;3.87;;;27.20;70.80;;;;;;5261516;28;20221;-44
2023/08/25 06:00:33;;;;;;;4.90;4.40;;;27.80;70.80;;;;;;5269705;28;20712;-44
2023/08/25 06:03:04;;;;;;;5.97;4.10;;;29.70;67.10;;;;;;5269785;28;20207;-45
2023/08/25 06:05:35;;;;;;;9.10;4.43;;;31.80;61.70;;;;;;5261224;28;20440;-44
2023/08/25 06:08:06;;;;;;;4.10;3.57;;;33.90;55.80;;;;;;5265342;28;20177;-45
2023/08/25 06:10:36;;;;;;;4.63;3.67;;;35.40;50.60;;;;;;5266056;28;20196;-45
2023/08/25 06:13:07;;;;;;;4.53;3.30;;;36.20;48.10;;;;;;5266853;28;21313;-45
2023/08/25 06:15:38;;;;;;;7.40;4.07;;;37.00;45.60;;;;;;5260565;28;20196;-46
2023/08/25 06:18:08;;;;;;;3.92;3.72;;;37.90;43.60;;;;;;5258384;28;20185;-45
2023/08/25 06:20:39;;;;;;;4.10;3.85;;;38.20;41.90;;;;;;5263507;28;20559;-45
2023/08/25 06:23:11;;;;;;;6.18;3.60;;;39.10;40.10;;;;;;5266153;28;20719;-45
2023/08/25 06:25:44;;;;;;;6.05;4.45;;;39.10;39.50;;;;;;5265606;28;20259;-46
2023/08/25 06:28:15;;;;;;;7.00;4.13;;;39.50;38.90;;;;;;5258507;28;20185;-46
2023/08/25 06:30:49;;;;;;;3.88;3.33;;;40.20;37.50;;;;;;5258664;28;20657;-46
2023/08/25 06:33:19;;;;;;;5.95;3.65;;;40.60;36.70;;;;;;5263985;28;20267;-46
2023/08/25 06:35:50;;;;;;;7.75;3.78;;;41.20;35.20;;;;;;5267132;28;20557;-45
2023/08/25 06:38:21;;;;;;;6.68;4.35;;;41.30;34.70;;;;;;5266594;28;20641;-45
2023/08/25 06:40:52;;;;;;;6.35;3.90;;;41.70;34.00;;;;;;5268861;28;20220;-47
2023/08/25 06:43:23;;;;;;;4.57;4.18;;;41.90;33.50;;;;;;5253814;28;20628;-46
2023/08/25 06:45:54;;;;;;;4.80;4.22;;;41.90;33.10;;;;;;5257908;28;20272;-47
2023/08/25 06:48:25;;;;;;;5.03;4.28;;;42.10;32.80;;;;;;5241708;28;20201;-47
2023/08/25 06:50:55;;;;;;;4.50;4.10;;;42.20;32.30;;;;;;5255857;28;20553;-46
2023/08/25 06:53:26;;;;;;;4.82;4.43;;;42.50;32.00;;;;;;5260718;28;20192;-46
2023/08/25 06:55:57;;;;;;;3.90;3.67;;;42.80;31.50;;;;;;5263113;28;20189;-46
2023/08/25 06:58:28;;;;;;;3.85;3.65;;;43.00;31.30;;;;;;5265712;28;20209;-45
2023/08/25 07:00:59;;;;;;;5.38;4.50;;;43.10;31.10;;;;;;5261820;28;20653;-45
2023/08/25 07:03:29;;;;;;;4.70;4.20;;;43.20;30.70;;;;;;5257090;28;20173;-46
2023/08/25 07:06:00;;;;;;;8.70;4.75;;;43.50;30.50;;;;;;5259585;28;20181;-45
2023/08/25 07:08:31;;;;;;;3.60;3.40;;;43.60;30.10;;;;;;5256665;28;20792;-45
2023/08/25 07:11:03;;;;;;;3.90;3.60;;;43.80;29.80;;;;;;5264451;28;20204;-45
2023/08/25 07:13:34;;;;;;;5.70;4.22;;;43.80;29.60;;;;;;5266635;28;20172;-45
2023/08/25 07:16:05;;;;;;;3.72;3.33;;;43.40;29.90;;;;;;5264733;28;20728;-45
2023/08/25 07:18:36;;;;;;;7.10;4.95;;;43.40;30.00;;;;;;5254740;28;20201;-45
2023/08/25 07:21:08;;;;;;;4.05;3.75;;;43.00;29.60;;;;;;5262654;28;20265;-45
2023/08/25 07:23:41;;;;;;;3.67;3.38;;;42.80;30.80;;;;;;5264433;28;20185;-46
2023/08/25 07:26:12;;;;;;;7.85;3.78;;;42.90;30.10;;;;;;5266917;28;20526;-47
2023/08/25 07:28:42;;;;;;;4.03;3.75;;;43.50;29.80;;;;;;5245733;28;20191;-45
2023/08/25 07:31:13;;;;;;;8.90;5.45;;;43.50;29.70;;;;;;5262910;28;20200;-45
2023/08/25 07:33:44;;;;;;;4.00;3.63;;;44.00;29.20;;;;;;5269702;28;20211;-44
2023/08/25 07:36:17;;;;;;;3.88;3.58;;;43.60;29.20;;;;;;5268962;28;20224;-46
2023/08/25 07:38:48;;;;;;;5.72;3.75;;;43.50;29.40;;;;;;5257338;28;20180;-47
2023/08/25 07:41:21;;;;;;;3.25;3.10;;;43.60;29.50;;;;;;5259236;28;21849;-46
2023/08/25 07:43:52;;;;;;;4.88;4.07;;;43.60;29.20;;;;;;5263281;28;20182;-45
2023/08/25 07:46:23;;;;;;;3.90;3.70;;;43.90;29.30;;;;;;5261939;28;20188;-45
2023/08/25 07:48:54;;;;;;;3.95;3.65;;;43.70;29.10;;;;;;5269087;28;20292;-46
2023/08/25 07:51:24;;;;;;;5.13;2.85;;;43.30;29.30;;;;;;5266385;28;20204;-46
2023/08/25 07:53:55;;;;;;;5.55;4.00;;;43.00;29.30;;;;;;5265268;28;20188;-46
2023/08/25 07:56:26;;;;;;;3.58;3.28;;;42.70;29.40;;;;;;5264633;28;20234;-45
2023/08/25 07:58:57;;;;;;;8.02;3.53;;;42.70;29.70;;;;;;5261777;28;20252;-47
2023/08/25 08:01:28;;;;;;;3.33;3.03;;;42.70;29.60;;;;;;5253877;28;20207;-46
2023/08/25 08:03:58;;;;;;;7.50;3.90;;;42.00;30.30;;;;;;5255664;28;20185;-46
2023/08/25 08:06:29;;;;;;;4.97;3.65;;;41.90;30.50;;;;;;5263532;28;20195;-46
2023/08/25 08:09:00;;;;;;;4.15;3.78;;;42.40;30.20;;;;;;5256747;28;20181;-46
2023/08/25 08:11:30;;;;;;;4.45;4.05;;;42.90;29.80;;;;;;5259954;28;20213;-49
2023/08/25 08:14:02;;;;;;;3.72;3.35;;;43.00;29.80;;;;;;5263035;28;20181;-47
2023/08/25 08:16:33;;;;;;;4.00;3.70;;;43.20;29.50;;;;;;5261001;28;20272;-46
2023/08/25 08:19:05;;;;;;;4.22;3.92;;;43.10;29.20;;;;;;5247625;28;20271;-46
2023/08/25 08:21:35;;;;;;;5.88;4.22;;;43.00;29.40;;;;;;5270944;28;20288;-46
2023/08/25 08:24:06;;;;;;;8.80;4.00;;;42.90;29.40;;;;;;5250086;28;20303;-47
2023/08/25 08:26:37;;;;;;;3.33;3.13;;;41.20;30.20;;;;;;5261601;28;20200;-51
2023/08/25 08:29:08;;;;;;;4.03;3.75;;;40.20;32.30;;;;;;5262727;28;20180;-46
2023/08/25 08:31:40;;;;;;;3.67;3.47;;;39.80;32.90;;;;;;5260538;28;20256;-45
2023/08/25 08:34:10;;;;;;;5.10;4.07;;;39.10;33.90;;;;;;5260476;28;20192;-47
2023/08/25 08:36:41;;;;;;;4.43;3.42;;;38.00;34.60;;;;;;5259403;28;20394;-47
2023/08/25 08:39:12;;;;;;;3.92;3.67;;;36.90;36.40;;;;;;5256517;28;20228;-48
2023/08/25 08:41:45;;;;;;;4.05;3.67;;;35.80;37.60;;;;;;5251200;28;20200;-47
2023/08/25 08:44:18;;;;;;;3.50;3.20;;;34.30;40.10;;;;;;5267897;28;20177;-45
2023/08/25 08:46:50;;;;;;;5.68;3.72;;;33.80;41.30;;;;;;5262354;28;20185;-47
2023/08/25 08:49:23;;;;;;;3.30;3.17;;;32.90;42.60;;;;;;5280015;28;20263;-46
2023/08/25 08:51:59;;;;;;;4.83;4.33;;;32.00;44.30;;;;;;5277293;28;20223;-47
2023/08/25 08:54:31;;;;;;;3.80;3.13;;;31.60;45.20;;;;;;5273871;28;20184;-45
2023/08/25 08:57:04;;;;;;;4.27;4.00;;;31.20;46.10;;;;;;5275769;28;20188;-46
2023/08/25 08:59:35;;;;;;;3.80;3.50;;;31.00;46.30;;;;;;5269462;28;20201;-46
2023/08/25 09:02:07;;;;;;;3.10;3.00;;;30.80;46.50;;;;;;5269708;28;20204;-46
2023/08/25 09:04:40;;;;;;;9.77;3.80;;;30.70;47.10;;;;;;5271867;28;20211;-46
2023/08/25 09:07:12;;;;;;;4.53;4.10;;;30.60;47.40;;;;;;5266055;28;20188;-47
2023/08/25 09:09:45;;;;;;;3.80;3.50;;;30.70;47.90;;;;;;5270713;28;20764;-46
2023/08/25 09:12:17;;;;;;;4.23;3.60;;;30.70;48.00;;;;;;5260191;28;20289;-46
2023/08/25 09:14:48;;;;;;;7.10;3.70;;;30.70;48.20;;;;;;5259132;28;20223;-45
2023/08/25 09:17:20;;;;;;;2.80;2.60;;;30.70;47.90;;;;;;5270041;28;20190;-46
2023/08/25 09:19:51;;;;;;;4.97;3.63;;;30.50;47.90;;;;;;5268636;28;20366;-46
2023/08/25 09:22:22;;;;;;;3.67;3.47;;;30.30;48.40;;;;;;5272208;28;20542;-46
2023/08/25 09:24:57;;;;;;;3.67;3.43;;;30.20;49.00;;;;;;5271545;28;20185;-46
2023/08/25 09:27:28;;;;;;;3.53;3.30;;;30.30;48.80;;;;;;5279963;28;20180;-45
2023/08/25 09:30:04;;;;;;;2.97;2.77;;;30.40;48.90;;;;;;5273341;28;20207;-45
2023/08/25 09:32:35;;;;;;;6.30;3.20;;;30.30;49.00;;;;;;5268960;28;20270;-46
2023/08/25 09:35:18;;;;;;;4.40;3.10;;;30.00;49.10;;;;;;5271878;28;20209;-46
2023/08/25 09:37:49;;;;;;;9.00;3.70;;;29.90;49.50;;;;;;5268273;28;20786;-47
2023/08/25 09:40:19;;;;;;;3.23;3.03;;;29.70;49.80;;;;;;5274572;28;20332;-47
2023/08/25 09:42:57;;;;;;;4.67;3.57;;;29.90;50.10;;;;;;5267785;28;20196;-48
2023/08/25 09:45:28;;;;;;;5.60;3.60;;;30.20;50.40;;;;;;5276870;28;20522;-46
2023/08/25 09:48:13;;;;;;;3.93;3.37;;;30.50;49.60;;;;;;5264056;28;20213;-46
2023/08/25 09:50:44;;;;;;;8.60;3.60;;;30.80;48.20;;;;;;5275885;28;20180;-47
2023/08/25 09:53:16;;;;;;;3.70;3.10;;;31.00;47.80;;;;;;5277790;28;20188;-47
2023/08/25 09:55:49;;;;;;;3.00;2.80;;;31.40;47.90;;;;;;5263939;28;20185;-46
2023/08/25 09:58:19;;;;;;;6.67;3.80;;;31.60;46.90;;;;;;5263524;28;20235;-46
2023/08/25 10:00:50;;;;;;;11.70;3.80;;;31.80;46.70;;;;;;5264675;28;20243;-46
2023/08/25 10:03:21;;;;;;;6.27;4.50;;;31.90;46.50;;;;;;5284804;27;20180;-45
2023/08/25 10:05:52;;;;;;;3.70;3.40;;;31.80;46.20;;;;;;5266126;28;20706;-47
2023/08/25 10:08:24;;;;;;;7.60;3.97;;;31.80;46.90;;;;;;5263497;28;20193;-46
2023/08/25 10:10:56;;;;;;;8.83;3.30;;;31.70;47.50;;;;;;5268004;28;20342;-47
2023/08/25 10:13:28;;;;;;;8.27;3.90;;;31.60;47.00;;;;;;5260858;28;20185;-48
2023/08/25 10:16:03;;;;;;;14.90;8.53;;;31.50;47.40;;;;;;5260149;28;20189;-46
2023/08/25 10:18:38;;;;;;;7.23;5.33;;;31.40;47.30;;;;;;5277222;28;20641;-47
2023/08/25 10:21:10;;;;;;;13.90;4.07;;;31.40;47.90;;;;;;5278116;28;20236;-47
2023/08/25 10:23:42;;;;;;;4.17;3.83;;;31.50;47.80;;;;;;5265273;28;20653;-48
2023/08/25 10:26:14;;;;;;;7.43;3.33;;;31.50;47.90;;;;;;5265425;28;20279;-48
2023/08/25 10:28:45;;;;;;;6.00;3.53;;;31.70;47.80;;;;;;5262899;28;20188;-47
2023/08/25 10:31:16;;;;;;;5.05;3.42;;;31.90;48.00;;;;;;5259658;28;20228;-47
2023/08/25 10:33:53;;;;;;;5.45;4.43;;;31.90;47.40;;;;;;5256681;28;20193;-48
2023/08/25 10:36:24;;;;;;;5.87;3.43;;;31.90;47.20;;;;;;5254446;28;20180;-48
2023/08/25 10:38:58;;;;;;;4.40;3.77;;;31.90;47.20;;;;;;5264854;28;20552;-48
2023/08/25 10:41:34;;;;;;;6.07;3.57;;;31.90;47.20;;;;;;5263238;28;20538;-47
2023/08/25 10:44:23;;;;;;;8.43;3.47;;;31.90;47.30;;;;;;5255918;28;20296;-47
2023/08/25 10:47:00;;;;;;;2.90;2.77;;;32.00;47.30;;;;;;5262378;28;20174;-47
2023/08/25 10:49:40;;;;;;;3.40;3.10;;;32.20;46.90;;;;;;5264353;28;20185;-49
2023/08/25 10:52:15;;;;;;;3.57;3.37;;;32.00;47.40;;;;;;5273568;28;20580;-47
2023/08/25 10:54:47;;;;;;;6.73;3.63;;;31.90;47.90;;;;;;5270160;28;20236;-46
2023/08/25 10:57:27;;;;;;;2.85;2.65;;;31.90;47.60;;;;;;5253885;28;20248;-48
2023/08/25 11:00:26;;;;;;;4.10;3.77;;;31.70;47.60;;;;;;5266343;28;20214;-48
2023/08/25 11:02:57;;;;;;;4.47;3.40;;;31.50;47.90;;;;;;5268442;28;20220;-47
2023/08/25 11:05:34;;;;;;;6.30;4.40;;;31.40;49.40;;;;;;5271175;28;20230;-47
2023/08/25 11:08:23;;;;;;;3.10;2.90;;;31.40;48.10;;;;;;5258530;28;20255;-46
2023/08/25 11:11:14;;;;;;;2.73;2.57;;;31.30;48.10;;;;;;5252874;28;20204;-49
2023/08/25 11:13:45;;;;;;;3.73;2.90;;;31.40;48.30;;;;;;5260996;28;20933;-48
2023/08/25 11:16:16;;;;;;;4.13;3.77;;;31.50;47.80;;;;;;5268194;28;20232;-47
2023/08/25 11:18:47;;;;;;;5.00;4.30;;;31.50;47.60;;;;;;5273127;28;20208;-47
2023/08/25 11:21:27;;;;;;;5.03;3.43;;;31.30;48.00;;;;;;5275196;28;20806;-46
2023/08/25 11:23:58;;;;;;;11.03;6.53;;;31.00;48.50;;;;;;5271373;28;20180;-47
2023/08/25 11:26:30;;;;;;;4.77;4.20;;;30.90;49.00;;;;;;5271406;28;20188;-47
2023/08/25 11:29:02;;;;;;;6.77;3.70;;;31.20;48.90;;;;;;5265485;28;20196;-47
2023/08/25 11:31:33;;;;;;;3.33;3.07;;;31.40;49.00;;;;;;5262534;28;20490;-47
2023/08/25 11:34:04;;;;;;;3.30;2.83;;;31.40;48.80;;;;;;5271999;28;20275;-48
2023/08/25 11:36:34;;;;;;;3.50;3.20;;;31.30;48.90;;;;;;5248480;28;20177;-48
2023/08/25 11:39:05;;;;;;;4.57;3.63;;;31.20;49.50;;;;;;5269305;28;20268;-53
2023/08/25 11:41:38;;;;;;;6.10;3.70;;;31.00;49.80;;;;;;5259479;28;20209;-48
2023/08/25 11:44:10;;;;;;;4.63;3.53;;;30.90;50.20;;;;;;5254728;28;20268;-46
2023/08/25 11:46:41;;;;;;;3.97;3.40;;;30.70;50.40;;;;;;5272236;28;20234;-48
2023/08/25 11:49:12;;;;;;;15.27;5.97;;;30.50;50.60;;;;;;5266953;28;20196;-47
2023/08/25 11:51:44;;;;;;;5.87;4.40;;;30.40;50.90;;;;;;5264215;28;21271;-48
2023/08/25 11:54:15;;;;;;;4.03;3.53;;;30.30;50.80;;;;;;5270674;28;20260;-46
2023/08/25 11:56:50;;;;;;;4.23;3.60;;;30.20;51.20;;;;;;5261185;28;20466;-47
2023/08/25 11:59:22;;;;;;;3.70;3.47;;;30.00;51.70;;;;;;5258626;28;20597;-49
2023/08/25 12:02:01;;;;;;;10.17;3.20;;;30.00;52.00;;;;;;5260112;28;20514;-48
2023/08/25 12:04:32;;;;;;;4.13;3.73;;;30.00;52.10;;;;;;5269308;28;21101;-47
2023/08/25 12:07:02;;;;;;;6.00;3.00;;;30.10;52.00;;;;;;5273860;28;20434;-46
2023/08/25 12:09:33;;;;;;;4.20;3.80;;;30.40;50.90;;;;;;5274360;28;20188;-48
2023/08/25 12:12:04;;;;;;;2.70;2.50;;;30.70;50.00;;;;;;5264679;28;20208;-48
2023/08/25 12:14:38;;;;;;;5.63;3.70;;;31.00;49.40;;;;;;5247965;28;20198;-47
2023/08/25 12:17:29;;;;;;;3.13;2.80;;;31.00;49.70;;;;;;5251923;28;20188;-48
2023/08/25 12:20:09;;;;;;;2.77;2.67;;;31.10;50.00;;;;;;5262794;28;20309;-48
2023/08/25 12:23:09;;;;;;;3.13;2.83;;;31.30;50.10;;;;;;5253698;28;20692;-47
2023/08/25 12:25:42;;;;;;;6.10;4.20;;;31.50;49.60;;;;;;5247479;28;20247;-49
2023/08/25 12:28:13;;;;;;;7.60;4.50;;;31.50;49.60;;;;;;5243165;28;20204;-47
2023/08/25 12:30:43;;;;;;;4.63;2.90;;;31.60;49.70;;;;;;5256719;28;20207;-47
2023/08/25 12:33:14;;;;;;;4.47;3.50;;;31.90;49.60;;;;;;5269492;28;20190;-46
2023/08/25 12:35:45;;;;;;;3.97;3.53;;;32.00;49.20;;;;;;5255214;28;20199;-47
2023/08/25 12:38:16;;;;;;;5.80;3.97;;;31.90;49.30;;;;;;5280627;28;20264;-49
2023/08/25 12:40:47;;;;;;;3.87;3.50;;;31.80;49.50;;;;;;5265911;28;20217;-49
2023/08/25 12:43:17;;;;;;;3.90;3.70;;;31.50;50.00;;;;;;5262974;28;20202;-49
2023/08/25 12:45:48;;;;;;;3.57;3.27;;;31.30;50.80;;;;;;5269573;28;20698;-48
2023/08/25 12:48:19;;;;;;;2.90;2.70;;;31.10;50.70;;;;;;5270985;28;20185;-47
2023/08/25 12:50:50;;;;;;;4.80;3.83;;;31.00;51.10;;;;;;5261626;28;20189;-47
2023/08/25 12:53:20;;;;;;;9.13;5.30;;;30.90;51.40;;;;;;5260471;28;20188;-46
2023/08/25 12:55:53;;;;;;;4.03;3.73;;;30.80;51.60;;;;;;5268803;28;20284;-48
2023/08/25 12:58:23;;;;;;;6.80;3.33;;;30.70;51.70;;;;;;5267024;28;20857;-49
2023/08/25 13:00:54;;;;;;;4.30;3.27;;;30.70;51.60;;;;;;5269525;28;20467;-47
2023/08/25 13:03:25;;;;;;;6.30;3.20;;;30.80;52.00;;;;;;5265738;28;20264;-48
2023/08/25 13:05:56;;;;;;;4.63;2.87;;;30.90;51.70;;;;;;5266247;28;20193;-47
2023/08/25 13:08:26;;;;;;;3.20;3.00;;;30.70;51.20;;;;;;5256248;28;20198;-48
2023/08/25 13:10:57;;;;;;;2.50;2.40;;;30.70;51.60;;;;;;5263705;28;20243;-47